createdAt,value
2018-03-02T00:00:02.070Z,14.27
2018-03-02T00:04:05.632Z,12.63
2018-03-02T00:08:09.755Z,13.37
2018-03-02T00:12:13.906Z,14.03
2018-03-02T00:16:17.288Z,12.17
2018-03-02T00:20:21.515Z,14.50
2018-03-02T00:24:25.710Z,11.47
2018-03-02T00:28:29.095Z,12.40
2018-03-02T00:32:32.450Z,10.70
2018-03-02T00:36:36.586Z,11.67
2018-03-02T00:40:39.986Z,14.43
2018-03-02T00:44:44.119Z,17.03
2018-03-02T00:48:47.489Z,15.13
2018-03-02T00:52:50.874Z,13.47
2018-03-02T00:56:54.238Z,15.17
2018-03-02T01:00:57.614Z,18.33
2018-03-02T01:05:01.764Z,18.87
2018-03-02T01:09:05.165Z,20.57
2018-03-02T01:13:08.558Z,14.87
2018-03-02T01:17:12.704Z,25.20
2018-03-02T01:21:16.070Z,14.83
2018-03-02T01:25:20.231Z,15.70
2018-03-02T01:29:23.632Z,18.53
2018-03-02T01:33:27.768Z,16.97
2018-03-02T01:37:31.360Z,16.77
2018-03-02T01:41:35.493Z,19.60
2018-03-02T01:45:38.854Z,12.57
2018-03-02T01:49:42.219Z,14.03
2018-03-02T01:53:45.576Z,15.27
2018-03-02T01:57:48.940Z,15.33
2018-03-02T02:01:52.355Z,16.10
2018-03-02T02:05:55.728Z,14.00
2018-03-02T02:09:59.071Z,16.57
2018-03-02T02:14:02.441Z,16.33
2018-03-02T02:18:05.877Z,13.87
2018-03-02T02:22:09.265Z,12.70
2018-03-02T02:26:12.636Z,13.27
2018-03-02T02:30:16.764Z,14.67
2018-03-02T02:34:20.890Z,11.33
2018-03-02T02:38:25.031Z,13.17
2018-03-02T02:42:28.431Z,12.50
2018-03-02T02:46:31.796Z,16.70
2018-03-02T02:50:35.177Z,12.30
2018-03-02T02:54:38.577Z,14.13
2018-03-02T02:58:41.947Z,13.00
2018-03-02T03:02:45.346Z,11.40
2018-03-02T03:06:49.590Z,10.90
2018-03-02T03:10:52.965Z,11.80
2018-03-02T03:14:57.115Z,12.63
2018-03-02T03:19:00.480Z,11.73
2018-03-02T03:23:03.860Z,12.97
2018-03-02T03:27:07.230Z,12.93
2018-03-02T03:31:10.605Z,12.97
2018-03-02T03:35:14.804Z,10.23
2018-03-02T03:39:18.165Z,13.13
2018-03-02T03:43:21.537Z,10.90
2018-03-02T03:47:24.913Z,11.37
2018-03-02T03:51:28.277Z,10.00
2018-03-02T03:55:31.673Z,12.33
2018-03-02T03:59:35.831Z,8.10
2018-03-02T04:03:39.212Z,10.73
2018-03-02T04:07:42.575Z,9.60
2018-03-02T04:11:45.949Z,11.70
2018-03-02T04:15:49.326Z,10.00
2018-03-02T04:19:52.700Z,10.60
2018-03-02T04:23:56.065Z,8.47
2018-03-02T04:27:59.425Z,10.27
2018-03-02T04:32:03.554Z,10.90
2018-03-02T04:36:07.698Z,13.43
2018-03-02T04:40:11.079Z,9.13
2018-03-02T04:44:15.266Z,11.00
2018-03-02T04:48:18.625Z,8.50
2018-03-02T04:52:22.762Z,8.80
2018-03-02T04:56:26.269Z,8.57
2018-03-02T05:00:29.749Z,9.17
2018-03-02T05:04:33.875Z,14.13
2018-03-02T05:08:38.009Z,9.63
2018-03-02T05:12:41.389Z,11.57
2018-03-02T05:16:44.746Z,9.83
2018-03-02T05:20:48.162Z,10.87
2018-03-02T05:24:51.584Z,13.00
2018-03-02T05:28:54.941Z,14.13
2018-03-02T05:32:59.076Z,11.10
2018-03-02T05:37:02.581Z,11.40
2018-03-02T05:41:06.059Z,15.43
2018-03-02T05:45:10.251Z,12.30
2018-03-02T05:49:13.617Z,12.80
2018-03-02T05:53:16.993Z,8.97
2018-03-02T05:57:20.379Z,11.87
2018-03-02T06:01:23.747Z,8.93
2018-03-02T06:05:27.130Z,5.97
2018-03-02T06:09:31.273Z,7.40
2018-03-02T06:13:34.654Z,7.50
2018-03-02T06:17:38.788Z,6.43
2018-03-02T06:21:42.159Z,6.53
2018-03-02T06:25:45.524Z,8.27
2018-03-02T06:29:48.899Z,6.97
2018-03-02T06:33:53.037Z,7.80
2018-03-02T06:37:56.429Z,6.87
2018-03-02T06:41:59.844Z,5.73
2018-03-02T06:46:03.231Z,6.77
2018-03-02T06:50:07.369Z,8.40
2018-03-02T06:54:10.736Z,9.67
2018-03-02T06:58:14.877Z,7.70
2018-03-02T07:02:19.022Z,7.37
2018-03-02T07:06:22.388Z,6.47
2018-03-02T07:10:25.760Z,6.40
2018-03-02T07:14:29.132Z,4.97
2018-03-02T07:18:33.278Z,4.87
2018-03-02T07:22:36.622Z,5.30
2018-03-02T07:26:40.904Z,6.30
2018-03-02T07:30:44.279Z,7.57
2018-03-02T07:34:48.411Z,8.53
2018-03-02T07:38:52.535Z,5.17
2018-03-02T07:42:56.686Z,4.87
2018-03-02T07:47:00.054Z,7.40
2018-03-02T07:51:04.190Z,5.23
2018-03-02T07:55:08.317Z,7.90
2018-03-02T07:59:12.504Z,4.70
2018-03-02T08:03:16.060Z,5.73
2018-03-02T08:07:19.428Z,7.43
2018-03-02T08:11:22.810Z,7.80
2018-03-02T08:15:26.171Z,4.93
2018-03-02T08:19:29.553Z,4.70
2018-03-02T08:23:33.702Z,6.93
2018-03-02T08:27:37.061Z,8.27
2018-03-02T08:31:40.432Z,4.33
2018-03-02T08:35:43.950Z,5.63
2018-03-02T08:39:47.327Z,4.53
2018-03-02T08:43:50.765Z,8.33
2018-03-02T08:47:54.131Z,3.43
2018-03-02T08:51:57.586Z,5.80
2018-03-02T08:56:00.948Z,3.63
2018-03-02T09:00:04.386Z,4.57
2018-03-02T09:04:07.754Z,5.07
2018-03-02T09:08:11.886Z,7.10
2018-03-02T09:12:15.370Z,4.97
2018-03-02T09:16:19.519Z,7.27
2018-03-02T09:20:23.043Z,7.20
2018-03-02T09:24:26.440Z,6.40
2018-03-02T09:28:29.877Z,4.57
2018-03-02T09:32:33.331Z,3.60
2018-03-02T09:36:37.472Z,5.60
2018-03-02T09:40:40.867Z,5.17
2018-03-02T09:44:45.087Z,8.17
2018-03-02T09:48:49.256Z,4.10
2018-03-02T09:52:52.824Z,5.53
2018-03-02T09:56:56.972Z,2.70
2018-03-02T10:01:00.395Z,4.73
2018-03-02T10:05:03.745Z,6.30
2018-03-02T10:09:07.102Z,6.07
2018-03-02T10:13:10.474Z,4.00
2018-03-02T10:17:13.877Z,4.43
2018-03-02T10:21:17.993Z,4.03
2018-03-02T10:25:22.125Z,4.50
2018-03-02T10:29:26.243Z,4.70
2018-03-02T10:33:30.373Z,4.93
2018-03-02T10:37:34.527Z,4.23
2018-03-02T10:41:37.948Z,4.03
2018-03-02T10:45:41.339Z,4.70
2018-03-02T10:49:44.715Z,5.60
2018-03-02T10:53:48.855Z,4.57
2018-03-02T10:57:52.346Z,5.17
2018-03-02T11:01:56.574Z,4.50
2018-03-02T11:06:00.705Z,3.70
2018-03-02T11:10:04.070Z,3.90
2018-03-02T11:14:07.450Z,5.20
2018-03-02T11:18:10.796Z,4.00
2018-03-02T11:22:14.354Z,4.93
2018-03-02T11:26:17.748Z,4.43
2018-03-02T11:30:21.115Z,6.73
2018-03-02T11:34:24.485Z,6.10
2018-03-02T11:38:27.936Z,5.53
2018-03-02T11:42:31.301Z,4.83
2018-03-02T11:46:34.674Z,6.63
2018-03-02T11:50:38.057Z,7.23
2018-03-02T11:54:42.378Z,17.57
2018-03-02T11:58:46.620Z,10.43
2018-03-02T12:02:50.765Z,10.77
2018-03-02T12:06:54.118Z,9.50
2018-03-02T12:10:57.473Z,8.50
2018-03-02T12:15:00.824Z,7.70
2018-03-02T12:19:04.190Z,8.47
2018-03-02T12:23:07.546Z,8.13
2018-03-02T12:27:10.904Z,15.37
2018-03-02T12:31:14.282Z,13.40
2018-03-02T12:35:17.659Z,11.13
2018-03-02T12:39:21.804Z,8.93
2018-03-02T12:43:25.987Z,11.00
2018-03-02T12:47:29.362Z,12.63
2018-03-02T12:51:32.871Z,7.77
2018-03-02T12:55:36.224Z,7.97
2018-03-02T12:59:39.586Z,10.70
2018-03-02T13:03:42.990Z,9.63
2018-03-02T13:07:46.384Z,12.03
2018-03-02T13:11:49.741Z,9.43
2018-03-02T13:15:53.342Z,8.30
2018-03-02T13:19:56.696Z,9.43
2018-03-02T13:24:00.091Z,8.57
2018-03-02T13:28:21.848Z,9.50
2018-03-02T13:32:25.198Z,10.23
2018-03-02T13:36:28.597Z,10.23
2018-03-02T13:40:49.713Z,10.73
2018-03-02T13:44:53.216Z,10.27
2018-03-02T13:49:14.556Z,7.90
2018-03-02T13:53:17.921Z,8.83
2018-03-02T13:57:39.104Z,7.07
2018-03-02T14:01:42.510Z,7.17
2018-03-02T14:05:45.891Z,6.07
2018-03-02T14:09:49.262Z,8.40
2018-03-02T14:13:52.731Z,8.23
2018-03-02T14:17:56.278Z,6.73
2018-03-02T14:21:59.655Z,8.23
2018-03-02T14:26:03.789Z,8.83
2018-03-02T14:30:07.980Z,7.33
2018-03-02T14:34:12.170Z,9.97
2018-03-02T14:38:15.530Z,9.13
2018-03-02T14:42:23.030Z,8.23
2018-03-02T14:46:27.274Z,8.67
2018-03-02T14:50:31.429Z,11.67
2018-03-02T14:54:34.836Z,8.90
2018-03-02T14:58:38.249Z,10.43
2018-03-02T15:02:41.887Z,9.13
2018-03-02T15:06:45.280Z,10.40
2018-03-02T15:10:48.723Z,11.23
2018-03-02T15:14:52.893Z,12.23
2018-03-02T15:18:56.313Z,9.30
2018-03-02T15:22:59.833Z,10.17
2018-03-02T15:27:03.265Z,10.90
2018-03-02T15:31:07.458Z,11.47
2018-03-02T15:35:10.946Z,8.73
2018-03-02T15:39:14.501Z,8.77
2018-03-02T15:43:17.876Z,12.37
2018-03-02T15:47:22.852Z,15.03
2018-03-02T15:51:26.372Z,10.43
2018-03-02T15:55:30.723Z,12.27
2018-03-02T15:59:34.146Z,10.93
2018-03-02T16:03:37.563Z,9.30
2018-03-02T16:07:41.111Z,10.50
2018-03-02T16:11:45.308Z,8.33
2018-03-02T16:15:48.802Z,14.00
2018-03-02T16:19:52.200Z,17.87
2018-03-02T16:23:55.608Z,14.87
2018-03-02T16:27:59.024Z,11.57
2018-03-02T16:32:02.433Z,11.83
2018-03-02T16:36:05.857Z,13.63
2018-03-02T16:40:10.126Z,12.80
2018-03-02T16:44:14.358Z,12.07
2018-03-02T16:48:21.381Z,11.13
2018-03-02T16:52:25.492Z,11.03
2018-03-02T16:56:29.230Z,13.30
2018-03-02T17:00:33.417Z,12.43
2018-03-02T17:04:37.996Z,7.97
2018-03-02T17:08:41.991Z,13.30
2018-03-02T17:12:46.014Z,11.30
2018-03-02T17:16:49.467Z,11.50
2018-03-02T17:20:53.020Z,11.70
2018-03-02T17:24:56.434Z,12.50
2018-03-02T17:28:59.828Z,9.07
2018-03-02T17:33:03.419Z,7.87
2018-03-02T17:37:07.645Z,11.63
2018-03-02T17:41:11.797Z,11.67
2018-03-02T17:45:15.233Z,9.73
2018-03-02T17:49:18.580Z,12.10
2018-03-02T17:53:22.015Z,9.50
2018-03-02T17:57:25.485Z,10.67
2018-03-02T18:01:29.650Z,13.03
2018-03-02T18:05:33.025Z,9.63
2018-03-02T18:09:37.173Z,10.37
2018-03-02T18:13:40.589Z,10.53
2018-03-02T18:17:43.980Z,12.33
2018-03-02T18:21:47.480Z,11.37
2018-03-02T18:25:50.891Z,11.17
2018-03-02T18:29:54.253Z,11.73
2018-03-02T18:33:57.636Z,13.53
2018-03-02T18:38:01.051Z,12.33
2018-03-02T18:42:04.443Z,14.53
2018-03-02T18:46:07.831Z,11.43
2018-03-02T18:50:11.216Z,14.43
2018-03-02T18:54:15.395Z,12.57
2018-03-02T18:58:18.843Z,14.27
2018-03-02T19:02:22.225Z,10.87
2018-03-02T19:06:25.626Z,12.00
2018-03-02T19:10:29.039Z,16.90
2018-03-02T19:14:32.436Z,14.03
2018-03-02T19:18:37.334Z,11.23
2018-03-02T19:22:40.735Z,9.53
2018-03-02T19:26:44.132Z,11.60
2018-03-02T19:30:47.539Z,11.40
2018-03-02T19:34:51.051Z,9.37
2018-03-02T19:38:54.469Z,11.03
2018-03-02T19:42:57.870Z,10.00
2018-03-02T19:47:01.293Z,11.53
2018-03-02T19:51:04.827Z,12.33
2018-03-02T19:55:08.230Z,8.10
2018-03-02T19:59:11.665Z,14.83
2018-03-02T20:03:15.874Z,12.67
2018-03-02T20:07:20.070Z,10.80
2018-03-02T20:11:23.534Z,8.70
2018-03-02T20:15:27.835Z,10.00
2018-03-02T20:19:31.348Z,13.13
2018-03-02T20:23:34.744Z,10.70
2018-03-02T20:27:38.162Z,11.73
2018-03-02T20:31:41.682Z,11.60
2018-03-02T20:35:45.898Z,14.57
2018-03-02T20:39:50.062Z,12.50
2018-03-02T20:43:53.510Z,11.53
2018-03-02T20:47:56.939Z,14.47
2018-03-02T20:52:01.080Z,14.53
2018-03-02T20:56:05.230Z,14.97
2018-03-02T21:00:08.738Z,13.93
2018-03-02T21:04:12.151Z,15.43
2018-03-02T21:08:15.548Z,13.50
2018-03-02T21:12:18.932Z,11.17
2018-03-02T21:16:23.066Z,12.93
2018-03-02T21:20:26.485Z,16.93
2018-03-02T21:24:29.891Z,17.03
2018-03-02T21:28:33.439Z,20.70
2018-03-02T21:32:36.917Z,18.43
2018-03-02T21:36:40.297Z,19.23
2018-03-02T21:40:43.716Z,17.57
2018-03-02T21:44:47.116Z,18.50
2018-03-02T21:48:50.696Z,14.77
2018-03-02T21:52:54.134Z,18.27
2018-03-02T21:56:57.558Z,17.13
2018-03-02T22:01:01.063Z,17.20
2018-03-02T22:05:04.443Z,16.40
2018-03-02T22:09:08.627Z,18.13
2018-03-02T22:13:11.995Z,19.30
2018-03-02T22:17:16.303Z,19.37
2018-03-02T22:21:20.481Z,18.50
2018-03-02T22:25:23.972Z,17.20
2018-03-02T22:29:27.362Z,15.00
2018-03-02T22:33:30.933Z,19.37
2018-03-02T22:37:35.042Z,17.00
2018-03-02T22:41:38.411Z,12.43
2018-03-02T22:45:41.802Z,22.10
2018-03-02T22:49:45.184Z,20.37
2018-03-02T22:53:49.439Z,18.43
2018-03-02T22:57:52.828Z,21.80
2018-03-02T23:04:26.051Z,15.97
2018-03-02T23:08:29.642Z,17.63
2018-03-02T23:12:33.778Z,19.97
2018-03-02T23:16:37.216Z,18.47
2018-03-02T23:20:40.602Z,19.00
2018-03-02T23:24:43.985Z,24.37
2018-03-02T23:28:48.141Z,19.27
2018-03-02T23:32:51.538Z,16.40
2018-03-02T23:36:55.002Z,18.63
2018-03-02T23:40:58.374Z,17.93
2018-03-02T23:45:01.748Z,17.10
2018-03-02T23:49:05.134Z,17.30
2018-03-02T23:53:09.395Z,21.07
2018-03-02T23:57:12.776Z,19.83
